createdAt,value
2022-08-04T00:00:39.146Z,1005.68
2022-08-04T00:01:39.187Z,1005.67
2022-08-04T00:03:33.280Z,1005.63
2022-08-04T00:04:33.276Z,1005.65
2022-08-04T00:06:27.374Z,1005.65
2022-08-04T00:07:44.497Z,1005.65
2022-08-04T00:09:21.457Z,1005.64
2022-08-04T00:10:21.453Z,1005.62
2022-08-04T00:12:15.781Z,1005.65
2022-08-04T00:13:15.759Z,1005.59
2022-08-04T00:15:09.862Z,1005.62
2022-08-04T00:16:09.860Z,1005.60
2022-08-04T00:18:04.020Z,1005.64
2022-08-04T00:19:03.988Z,1005.63
2022-08-04T00:20:58.102Z,1005.64
2022-08-04T00:21:58.085Z,1005.63
2022-08-04T00:24:11.055Z,1005.66
2022-08-04T00:24:52.261Z,1005.68
2022-08-04T00:26:46.359Z,1005.65
2022-08-04T00:27:46.342Z,1005.63
2022-08-04T00:29:40.427Z,1005.62
2022-08-04T00:30:40.426Z,1005.65
2022-08-04T00:32:34.957Z,1005.64
2022-08-04T00:33:34.542Z,1005.64
2022-08-04T00:35:28.619Z,1005.58
2022-08-04T00:36:28.614Z,1005.54
2022-08-04T00:38:22.801Z,1005.56
2022-08-04T00:39:22.876Z,1005.57
2022-08-04T00:41:16.871Z,1005.53
2022-08-04T00:42:16.859Z,1005.53
2022-08-04T00:44:10.960Z,1005.50
2022-08-04T00:45:10.956Z,1005.51
2022-08-04T00:47:05.042Z,1005.52
2022-08-04T00:48:05.031Z,1005.55
2022-08-04T00:49:59.136Z,1005.55
2022-08-04T00:50:59.134Z,1005.51
2022-08-04T00:52:54.293Z,1005.56
2022-08-04T00:53:54.282Z,1005.52
2022-08-04T00:55:49.369Z,1005.53
2022-08-04T00:56:49.362Z,1005.49
2022-08-04T00:58:43.429Z,1005.47
2022-08-04T00:59:43.429Z,1005.46
2022-08-04T01:01:37.551Z,1005.47
2022-08-04T01:02:37.503Z,1005.41
2022-08-04T01:04:31.781Z,1005.43
2022-08-04T01:05:38.040Z,1005.43
2022-08-04T01:07:25.876Z,1005.44
2022-08-04T01:08:25.866Z,1005.41
2022-08-04T01:10:20.033Z,1005.40
2022-08-04T01:11:20.029Z,1005.38
2022-08-04T01:13:15.583Z,1005.38
2022-08-04T01:14:14.095Z,1005.39
2022-08-04T01:16:08.181Z,1005.47
2022-08-04T01:17:08.171Z,1005.45
2022-08-04T01:19:02.265Z,1005.53
2022-08-04T01:20:02.264Z,1005.52
2022-08-04T01:21:56.350Z,1005.50
2022-08-04T01:22:56.338Z,1005.49
2022-08-04T01:24:50.931Z,1005.44
2022-08-04T01:25:50.412Z,1005.44
2022-08-04T01:27:44.541Z,1005.49
2022-08-04T01:28:44.523Z,1005.47
2022-08-04T01:30:38.279Z,1005.46
2022-08-04T01:31:38.275Z,1005.50
2022-08-04T01:33:32.424Z,1005.41
2022-08-04T01:34:32.406Z,1005.42
2022-08-04T01:36:26.530Z,1005.39
2022-08-04T01:37:26.478Z,1005.40
2022-08-04T01:39:20.628Z,1005.36
2022-08-04T01:40:20.551Z,1005.36
2022-08-04T01:42:22.476Z,1005.35
2022-08-04T01:43:15.305Z,1005.38
2022-08-04T01:45:09.464Z,1005.40
2022-08-04T01:46:09.454Z,1005.40
2022-08-04T01:48:03.577Z,1005.40
2022-08-04T01:49:03.563Z,1005.41
2022-08-04T01:50:57.688Z,1005.43
2022-08-04T01:51:57.681Z,1005.41
2022-08-04T01:53:52.817Z,1005.39
2022-08-04T01:54:52.796Z,1005.39
2022-08-04T01:56:47.862Z,1005.39
2022-08-04T01:57:47.991Z,1005.38
2022-08-04T01:59:42.020Z,1005.36
2022-08-04T02:00:42.006Z,1005.35
2022-08-04T02:02:36.286Z,1005.33
2022-08-04T02:04:20.035Z,1005.33
2022-08-04T02:06:03.113Z,1005.33
2022-08-04T02:06:30.308Z,1005.33
2022-08-04T02:08:24.418Z,1005.32
2022-08-04T02:09:24.413Z,1005.31
2022-08-04T02:11:18.469Z,1005.29
2022-08-04T02:12:18.454Z,1005.27
2022-08-04T02:14:12.539Z,1005.26
2022-08-04T02:15:12.530Z,1005.27
2022-08-04T02:17:06.610Z,1005.24
2022-08-04T02:18:06.602Z,1005.22
2022-08-04T02:20:00.846Z,1005.25
2022-08-04T02:21:00.836Z,1005.20
2022-08-04T02:22:55.928Z,1005.21
2022-08-04T02:23:55.916Z,1005.19
2022-08-04T02:25:50.003Z,1005.20
2022-08-04T02:26:49.999Z,1005.15
2022-08-04T02:28:45.145Z,1005.15
2022-08-04T02:29:45.135Z,1005.18
2022-08-04T02:31:40.195Z,1005.17
2022-08-04T02:32:40.191Z,1005.17
2022-08-04T02:34:34.322Z,1005.19
2022-08-04T02:35:34.307Z,1005.15
2022-08-04T02:37:28.381Z,1005.15
2022-08-04T02:38:28.375Z,1005.12
2022-08-04T02:40:22.478Z,1005.11
2022-08-04T02:41:22.463Z,1005.06
2022-08-04T02:43:17.556Z,1005.05
2022-08-04T02:44:17.554Z,1005.06
2022-08-04T02:46:18.022Z,1005.11
2022-08-04T02:47:11.633Z,1005.12
2022-08-04T02:49:05.849Z,1005.10
2022-08-04T02:50:05.835Z,1005.09
2022-08-04T02:51:59.967Z,1005.09
2022-08-04T02:52:59.967Z,1005.08
2022-08-04T02:54:54.047Z,1005.08
2022-08-04T02:55:54.048Z,1005.06
2022-08-04T02:57:48.163Z,1005.07
2022-08-04T02:58:48.159Z,1005.02
2022-08-04T03:00:42.287Z,1005.01
2022-08-04T03:01:56.921Z,1005.01
2022-08-04T03:03:37.328Z,1005.03
2022-08-04T03:04:37.312Z,1005.07
2022-08-04T03:06:31.344Z,1005.03
2022-08-04T03:07:31.339Z,1005.04
2022-08-04T03:09:26.464Z,1005.00
2022-08-04T03:10:26.449Z,1004.97
2022-08-04T03:12:20.544Z,1004.96
2022-08-04T03:13:20.540Z,1004.97
2022-08-04T03:15:14.626Z,1004.93
2022-08-04T03:16:14.611Z,1004.95
2022-08-04T03:18:08.693Z,1004.97
2022-08-04T03:19:08.684Z,1004.98
2022-08-04T03:21:02.819Z,1005.01
2022-08-04T03:22:02.805Z,1005.00
2022-08-04T03:23:56.980Z,1004.99
2022-08-04T03:24:56.966Z,1004.97
2022-08-04T03:26:51.126Z,1004.97
2022-08-04T03:27:51.133Z,1004.93
2022-08-04T03:29:45.203Z,1005.00
2022-08-04T03:30:45.192Z,1004.99
2022-08-04T03:32:39.289Z,1005.00
2022-08-04T03:33:39.278Z,1004.99
2022-08-04T03:35:33.361Z,1004.99
2022-08-04T03:36:33.343Z,1004.99
2022-08-04T03:38:27.469Z,1004.98
2022-08-04T03:39:27.478Z,1005.00
2022-08-04T03:41:54.874Z,1004.98
2022-08-04T03:42:21.269Z,1004.96
2022-08-04T03:44:15.439Z,1004.94
2022-08-04T03:45:23.032Z,1004.95
2022-08-04T03:47:09.534Z,1004.95
2022-08-04T03:48:09.527Z,1004.93
2022-08-04T03:50:03.586Z,1004.94
2022-08-04T03:51:03.570Z,1004.92
2022-08-04T03:52:57.621Z,1004.93
2022-08-04T03:53:57.618Z,1004.91
2022-08-04T03:55:52.716Z,1004.90
2022-08-04T03:56:52.703Z,1004.88
2022-08-04T03:58:46.857Z,1004.88
2022-08-04T03:59:48.746Z,1004.86
2022-08-04T04:02:02.750Z,1004.85
2022-08-04T04:02:41.954Z,1004.80
2022-08-04T04:04:35.998Z,1004.87
2022-08-04T04:05:43.151Z,1004.89
2022-08-04T04:07:35.684Z,1004.84
2022-08-04T04:08:30.157Z,1004.83
2022-08-04T04:10:28.917Z,1004.84
2022-08-04T04:11:23.979Z,1004.81
2022-08-04T04:13:18.071Z,1004.79
2022-08-04T04:14:18.064Z,1004.83
2022-08-04T04:16:12.152Z,1004.82
2022-08-04T04:17:12.136Z,1004.80
2022-08-04T04:19:06.225Z,1004.85
2022-08-04T04:20:06.216Z,1004.84
2022-08-04T04:22:00.310Z,1004.88
2022-08-04T04:23:00.299Z,1004.86
2022-08-04T04:24:54.411Z,1004.88
2022-08-04T04:25:54.392Z,1004.93
2022-08-04T04:27:48.498Z,1004.89
2022-08-04T04:28:48.482Z,1004.90
2022-08-04T04:30:42.218Z,1004.89
2022-08-04T04:31:42.201Z,1004.88
2022-08-04T04:33:36.252Z,1004.86
2022-08-04T04:34:36.245Z,1004.87
2022-08-04T04:36:30.342Z,1004.90
2022-08-04T04:37:30.332Z,1004.91
2022-08-04T04:39:24.493Z,1004.89
2022-08-04T04:40:24.416Z,1004.89
2022-08-04T04:42:18.525Z,1004.98
2022-08-04T04:43:18.510Z,1004.92
2022-08-04T04:45:12.609Z,1004.95
2022-08-04T04:46:15.308Z,1004.93
2022-08-04T04:48:10.698Z,1004.91
2022-08-04T04:49:07.747Z,1004.91
2022-08-04T04:51:01.859Z,1004.89
2022-08-04T04:52:01.845Z,1004.91
2022-08-04T04:54:00.003Z,1004.89
2022-08-04T04:54:55.564Z,1004.92
2022-08-04T04:56:49.650Z,1004.92
2022-08-04T04:57:53.952Z,1004.92
2022-08-04T04:59:44.827Z,1004.90
2022-08-04T05:00:44.819Z,1004.92
2022-08-04T05:02:38.931Z,1004.94
2022-08-04T05:03:38.918Z,1004.99
2022-08-04T05:05:32.998Z,1004.99
2022-08-04T05:06:32.981Z,1005.00
2022-08-04T05:08:42.750Z,1004.99
2022-08-04T05:09:27.048Z,1005.01
2022-08-04T05:11:21.175Z,1004.99
2022-08-04T05:12:53.820Z,1005.00
2022-08-04T05:14:37.447Z,1005.05
2022-08-04T05:15:15.437Z,1005.02
2022-08-04T05:17:09.551Z,1005.04
2022-08-04T05:18:09.529Z,1005.03
2022-08-04T05:20:03.627Z,1005.05
2022-08-04T05:21:03.614Z,1005.07
2022-08-04T05:22:57.720Z,1005.09
2022-08-04T05:23:57.706Z,1005.07
2022-08-04T05:25:59.753Z,1005.06
2022-08-04T05:26:51.874Z,1005.16
2022-08-04T05:28:45.989Z,1005.12
2022-08-04T05:29:45.983Z,1005.11
2022-08-04T05:31:40.064Z,1005.17
2022-08-04T05:32:40.050Z,1005.13
2022-08-04T05:34:34.213Z,1005.13
2022-08-04T05:35:50.528Z,1005.15
2022-08-04T05:37:30.299Z,1005.18
2022-08-04T05:38:28.316Z,1005.16
2022-08-04T05:40:22.352Z,1005.14
2022-08-04T05:41:22.351Z,1005.16
2022-08-04T05:43:16.437Z,1005.16
2022-08-04T05:44:16.427Z,1005.13
2022-08-04T05:46:10.498Z,1005.17
2022-08-04T05:47:10.485Z,1005.16
2022-08-04T05:49:04.543Z,1005.16
2022-08-04T05:50:04.538Z,1005.16
2022-08-04T05:51:58.642Z,1005.19
2022-08-04T05:52:59.936Z,1005.20
2022-08-04T05:54:52.796Z,1005.23
2022-08-04T05:55:59.641Z,1005.24
2022-08-04T05:57:46.869Z,1005.24
2022-08-04T05:58:46.854Z,1005.27
2022-08-04T06:00:41.769Z,1005.26
2022-08-04T06:01:55.522Z,1005.28
2022-08-04T06:03:35.030Z,1005.26
2022-08-04T06:04:35.012Z,1005.28
2022-08-04T06:06:29.138Z,1005.31
2022-08-04T06:07:29.128Z,1005.32
2022-08-04T06:09:23.188Z,1005.33
2022-08-04T06:10:27.056Z,1005.26
2022-08-04T06:12:17.288Z,1005.23
2022-08-04T06:13:48.019Z,1005.20
2022-08-04T06:15:11.275Z,1005.27
2022-08-04T06:16:17.846Z,1005.26
2022-08-04T06:18:33.950Z,1005.22
2022-08-04T06:20:00.271Z,1005.24
2022-08-04T06:20:59.485Z,1005.22
2022-08-04T06:21:59.464Z,1005.20
2022-08-04T06:23:57.852Z,1005.17
2022-08-04T06:24:53.619Z,1005.15
2022-08-04T06:26:47.698Z,1005.21
2022-08-04T06:27:47.681Z,1005.19
2022-08-04T06:29:50.648Z,1005.20
2022-08-04T06:30:41.755Z,1005.17
2022-08-04T06:32:40.002Z,1005.24
2022-08-04T06:33:54.588Z,1005.17
2022-08-04T06:35:30.920Z,1005.20
2022-08-04T06:36:30.914Z,1005.24
2022-08-04T06:38:25.989Z,1005.25
2022-08-04T06:39:26.038Z,1005.30
2022-08-04T06:41:20.075Z,1005.36
2022-08-04T06:42:22.546Z,1005.30
2022-08-04T06:44:14.233Z,1005.33
2022-08-04T06:45:14.220Z,1005.31
2022-08-04T06:47:08.404Z,1005.30
2022-08-04T06:48:08.392Z,1005.29
2022-08-04T06:51:29.581Z,1005.30
2022-08-04T06:51:32.389Z,1005.35
2022-08-04T06:52:56.724Z,1005.33
2022-08-04T06:53:56.712Z,1005.33
2022-08-04T06:55:52.306Z,1005.32
2022-08-04T06:56:52.300Z,1005.29
2022-08-04T06:58:46.414Z,1005.31
2022-08-04T06:59:46.401Z,1005.28
2022-08-04T07:01:40.585Z,1005.31
2022-08-04T07:02:40.537Z,1005.35
2022-08-04T07:04:34.648Z,1005.34
2022-08-04T07:05:34.639Z,1005.34
2022-08-04T07:07:36.787Z,1005.34
2022-08-04T07:08:28.725Z,1005.39
2022-08-04T07:10:22.807Z,1005.43
2022-08-04T07:11:22.814Z,1005.43
2022-08-04T07:13:16.906Z,1005.44
2022-08-04T07:14:16.894Z,1005.48
2022-08-04T07:16:11.017Z,1005.50
2022-08-04T07:17:10.996Z,1005.52
2022-08-04T07:19:10.566Z,1005.55
2022-08-04T07:20:06.105Z,1005.58
2022-08-04T07:22:06.457Z,1005.56
2022-08-04T07:23:00.331Z,1005.47
2022-08-04T07:24:54.453Z,1005.56
2022-08-04T07:26:11.284Z,1005.63
2022-08-04T07:27:49.358Z,1005.63
2022-08-04T07:28:48.526Z,1005.56
2022-08-04T07:30:42.262Z,1005.54
2022-08-04T07:31:42.262Z,1005.51
2022-08-04T07:33:36.345Z,1005.55
2022-08-04T07:34:36.338Z,1005.51
2022-08-04T07:36:34.825Z,1005.47
2022-08-04T07:37:38.856Z,1005.41
2022-08-04T07:39:28.592Z,1005.36
2022-08-04T07:40:24.564Z,1005.34
2022-08-04T07:42:18.695Z,1005.39
2022-08-04T07:43:18.695Z,1005.38
2022-08-04T07:45:14.828Z,1005.40
2022-08-04T07:46:14.819Z,1005.42
2022-08-04T07:48:08.903Z,1005.34
2022-08-04T07:49:08.904Z,1005.37
2022-08-04T07:51:03.268Z,1005.42
2022-08-04T07:52:03.263Z,1005.43
2022-08-04T07:53:57.416Z,1005.40
2022-08-04T07:54:57.409Z,1005.41
2022-08-04T07:56:51.509Z,1005.38
2022-08-04T07:57:51.511Z,1005.40
2022-08-04T07:59:49.882Z,1005.35
2022-08-04T08:00:45.612Z,1005.31
2022-08-04T08:02:39.752Z,1005.36
2022-08-04T08:03:39.947Z,1005.36
2022-08-04T08:05:33.829Z,1005.34
2022-08-04T08:06:37.447Z,1005.31
2022-08-04T08:08:27.926Z,1005.31
2022-08-04T08:09:27.914Z,1005.29
2022-08-04T08:11:22.074Z,1005.29
2022-08-04T08:12:38.226Z,1005.27
2022-08-04T08:14:16.197Z,1005.29
2022-08-04T08:15:16.188Z,1005.27
2022-08-04T08:17:10.354Z,1005.28
2022-08-04T08:18:10.358Z,1005.24
2022-08-04T08:20:04.610Z,1005.29
2022-08-04T08:21:04.600Z,1005.23
2022-08-04T08:22:59.817Z,1005.23
2022-08-04T08:23:59.712Z,1005.23
2022-08-04T08:25:53.467Z,1005.26
2022-08-04T08:26:53.455Z,1005.23
2022-08-04T08:28:48.568Z,1005.22
2022-08-04T08:29:48.558Z,1005.23
2022-08-04T08:31:57.614Z,1005.17
2022-08-04T08:32:43.702Z,1005.22
2022-08-04T08:34:37.874Z,1005.20
2022-08-04T08:35:39.776Z,1005.24
2022-08-04T08:37:32.959Z,1005.26
2022-08-04T08:38:32.962Z,1005.26
2022-08-04T08:40:32.397Z,1005.27
2022-08-04T08:41:27.054Z,1005.24
2022-08-04T08:44:04.375Z,1005.22
2022-08-04T08:44:29.822Z,1005.22
2022-08-04T08:46:17.454Z,1005.20
2022-08-04T08:47:16.235Z,1005.17
2022-08-04T08:49:10.326Z,1005.21
2022-08-04T08:50:10.329Z,1005.20
2022-08-04T08:52:05.409Z,1005.19
2022-08-04T08:53:05.422Z,1005.21
2022-08-04T08:55:00.513Z,1005.20
2022-08-04T08:56:00.504Z,1005.21
2022-08-04T08:57:59.361Z,1005.19
2022-08-04T08:58:54.679Z,1005.22
2022-08-04T09:00:49.817Z,1005.20
2022-08-04T09:01:49.902Z,1005.23
2022-08-04T09:03:44.919Z,1005.15
2022-08-04T09:04:45.888Z,1005.13
2022-08-04T09:06:39.052Z,1005.13
2022-08-04T09:07:39.045Z,1005.10
2022-08-04T09:09:33.179Z,1005.09
2022-08-04T09:10:33.708Z,1005.08
2022-08-04T09:12:27.320Z,1005.07
2022-08-04T09:13:27.343Z,1005.01
2022-08-04T09:15:21.849Z,1004.97
2022-08-04T09:16:21.846Z,1004.96
2022-08-04T09:18:17.192Z,1004.94
2022-08-04T09:19:38.065Z,1004.97
2022-08-04T09:21:12.330Z,1004.93
2022-08-04T09:22:12.791Z,1004.93
2022-08-04T09:24:35.633Z,1004.97
2022-08-04T09:25:07.473Z,1004.97
2022-08-04T09:27:01.655Z,1004.91
2022-08-04T09:28:05.846Z,1004.89
2022-08-04T09:29:55.753Z,1004.86
2022-08-04T09:30:55.754Z,1004.89
2022-08-04T09:32:49.847Z,1004.90
2022-08-04T09:33:49.856Z,1004.91
2022-08-04T09:35:44.991Z,1004.89
2022-08-04T09:36:44.984Z,1004.90
2022-08-04T09:38:40.114Z,1004.88
2022-08-04T09:39:41.115Z,1004.86
2022-08-04T09:41:48.672Z,1004.89
2022-08-04T09:42:34.244Z,1004.87
2022-08-04T09:44:50.368Z,1004.81
2022-08-04T09:45:36.651Z,1004.87
2022-08-04T09:47:23.530Z,1004.86
2022-08-04T09:48:23.534Z,1004.85
2022-08-04T09:50:18.641Z,1004.88
2022-08-04T09:51:18.636Z,1004.87
2022-08-04T09:53:12.755Z,1004.88
2022-08-04T09:54:29.364Z,1004.89
2022-08-04T09:56:07.069Z,1004.91
2022-08-04T09:57:07.069Z,1004.91
2022-08-04T09:59:01.229Z,1004.88
2022-08-04T10:00:01.735Z,1004.85
2022-08-04T10:01:58.836Z,1004.87
2022-08-04T10:02:55.613Z,1004.82
2022-08-04T10:04:49.677Z,1004.80
2022-08-04T10:05:49.679Z,1004.82
2022-08-04T10:07:43.855Z,1004.81
2022-08-04T10:08:43.869Z,1004.83
2022-08-04T10:10:39.005Z,1004.92
2022-08-04T10:11:56.172Z,1004.89
2022-08-04T10:13:33.135Z,1004.86
2022-08-04T10:14:33.144Z,1004.84
2022-08-04T10:16:27.243Z,1004.83
2022-08-04T10:17:27.246Z,1004.91
2022-08-04T10:19:21.372Z,1004.92
2022-08-04T10:20:36.567Z,1004.90
2022-08-04T10:22:28.219Z,1004.88
2022-08-04T10:23:15.598Z,1004.83
2022-08-04T10:25:38.985Z,1004.86
2022-08-04T10:26:09.755Z,1004.73
2022-08-04T10:28:03.845Z,1004.76
2022-08-04T10:29:03.854Z,1004.79
2022-08-04T10:30:57.616Z,1004.74
2022-08-04T10:31:57.617Z,1004.74
2022-08-04T10:33:52.740Z,1004.71
2022-08-04T10:34:52.743Z,1004.66
2022-08-04T10:36:46.856Z,1004.65
2022-08-04T10:37:59.172Z,1004.62
2022-08-04T10:39:42.812Z,1004.75
2022-08-04T10:40:40.995Z,1004.70
2022-08-04T10:42:35.098Z,1004.68
2022-08-04T10:43:35.096Z,1004.69
2022-08-04T10:45:29.224Z,1004.63
2022-08-04T10:46:29.230Z,1004.64
2022-08-04T10:48:34.826Z,1004.73
2022-08-04T10:49:23.339Z,1004.65
2022-08-04T10:51:17.467Z,1004.62
2022-08-04T10:52:17.468Z,1004.62
2022-08-04T10:54:11.688Z,1004.67
2022-08-04T10:55:11.700Z,1004.72
2022-08-04T10:57:05.785Z,1004.79
2022-08-04T10:58:05.788Z,1004.76
2022-08-04T11:00:03.611Z,1004.85
2022-08-04T11:00:59.963Z,1004.86
2022-08-04T11:02:54.272Z,1004.87
2022-08-04T11:03:54.238Z,1004.82
2022-08-04T11:05:48.538Z,1004.66
2022-08-04T11:06:48.538Z,1004.80
2022-08-04T11:08:42.742Z,1004.87
2022-08-04T11:09:42.767Z,1004.85
2022-08-04T11:12:00.348Z,1004.70
2022-08-04T11:12:36.878Z,1004.72
2022-08-04T11:14:31.032Z,1004.72
2022-08-04T11:15:31.046Z,1004.66
2022-08-04T11:17:25.148Z,1004.80
2022-08-04T11:18:25.151Z,1004.65
2022-08-04T11:20:36.518Z,1004.79
2022-08-04T11:21:20.265Z,1004.92
2022-08-04T11:23:15.387Z,1004.98
2022-08-04T11:24:15.396Z,1004.83
2022-08-04T11:26:09.511Z,1004.82
2022-08-04T11:27:09.511Z,1004.77
2022-08-04T11:29:04.560Z,1004.81
2022-08-04T11:30:03.658Z,1004.86
2022-08-04T11:31:57.796Z,1004.77
2022-08-04T11:32:57.794Z,1004.80
2022-08-04T11:34:52.803Z,1004.73
2022-08-04T11:35:52.078Z,1004.72
2022-08-04T11:37:47.538Z,1004.73
2022-08-04T11:38:52.007Z,1004.69
2022-08-04T11:40:41.654Z,1004.75
2022-08-04T11:41:41.664Z,1004.76
2022-08-04T11:44:00.846Z,1004.77
2022-08-04T11:44:35.453Z,1004.79
2022-08-04T11:46:29.545Z,1004.86
2022-08-04T11:47:29.532Z,1004.82
2022-08-04T11:49:23.684Z,1004.78
2022-08-04T11:50:23.689Z,1004.78
2022-08-04T11:52:17.929Z,1004.77
2022-08-04T11:53:17.794Z,1004.73
2022-08-04T11:55:12.913Z,1004.71
2022-08-04T11:56:13.521Z,1004.71
2022-08-04T11:58:08.038Z,1004.68
2022-08-04T11:59:08.034Z,1004.70
2022-08-04T12:01:02.218Z,1004.74
2022-08-04T12:02:02.272Z,1004.73
2022-08-04T12:04:03.450Z,1004.76
2022-08-04T12:04:56.598Z,1004.75
2022-08-04T12:07:04.530Z,1004.75
2022-08-04T12:07:51.740Z,1004.72
2022-08-04T12:09:45.821Z,1004.71
2022-08-04T12:10:45.828Z,1004.73
2022-08-04T12:12:39.907Z,1004.72
2022-08-04T12:13:39.906Z,1004.73
2022-08-04T12:15:34.995Z,1004.71
2022-08-04T12:16:35.001Z,1004.77
2022-08-04T12:18:29.158Z,1004.79
2022-08-04T12:19:38.637Z,1004.84
2022-08-04T12:21:23.283Z,1004.85
2022-08-04T12:22:23.271Z,1004.85
2022-08-04T12:24:17.404Z,1004.91
2022-08-04T12:25:17.413Z,1004.99
2022-08-04T12:27:11.481Z,1004.98
2022-08-04T12:28:11.480Z,1005.02
2022-08-04T12:31:01.431Z,1005.02
2022-08-04T12:31:09.872Z,1005.02
2022-08-04T12:32:59.729Z,1005.03
2022-08-04T12:34:04.784Z,1005.04
2022-08-04T12:36:10.103Z,1005.01
2022-08-04T12:36:53.823Z,1004.94
2022-08-04T12:38:47.930Z,1004.90
2022-08-04T12:40:27.851Z,1004.91
2022-08-04T12:41:43.050Z,1004.81
2022-08-04T12:42:56.413Z,1004.79
2022-08-04T12:44:38.854Z,1004.77
2022-08-04T12:45:37.161Z,1004.79
2022-08-04T12:47:31.261Z,1004.77
2022-08-04T12:48:31.253Z,1004.76
2022-08-04T12:50:25.319Z,1004.69
2022-08-04T12:51:31.164Z,1004.70
2022-08-04T12:53:31.985Z,1004.73
2022-08-04T12:54:19.442Z,1004.74
2022-08-04T12:56:14.558Z,1004.77
2022-08-04T12:57:14.560Z,1004.77
2022-08-04T12:59:12.839Z,1004.77
2022-08-04T13:00:08.727Z,1004.75
2022-08-04T13:02:09.285Z,1004.73
2022-08-04T13:03:02.820Z,1004.74
2022-08-04T13:04:56.905Z,1004.73
2022-08-04T13:05:56.908Z,1004.77
2022-08-04T13:07:51.102Z,1004.79
2022-08-04T13:08:51.098Z,1004.78
2022-08-04T13:10:45.178Z,1004.86
2022-08-04T13:11:45.178Z,1004.87
2022-08-04T13:13:41.482Z,1004.87
2022-08-04T13:14:41.469Z,1004.87
2022-08-04T13:16:35.543Z,1004.90
2022-08-04T13:17:35.537Z,1004.94
2022-08-04T13:19:29.645Z,1005.02
2022-08-04T13:20:29.649Z,1005.06
2022-08-04T13:22:23.773Z,1005.04
2022-08-04T13:23:23.767Z,1005.05
2022-08-04T13:26:43.169Z,1005.08
2022-08-04T13:26:44.707Z,1005.06
2022-08-04T13:28:13.001Z,1005.10
2022-08-04T13:29:16.652Z,1004.99
2022-08-04T13:31:06.747Z,1005.05
2022-08-04T13:32:06.744Z,1005.03
2022-08-04T13:34:00.884Z,1005.03
2022-08-04T13:35:00.887Z,1005.11
2022-08-04T13:36:54.989Z,1005.11
2022-08-04T13:37:54.985Z,1005.13
2022-08-04T13:39:55.586Z,1005.12
2022-08-04T13:40:50.136Z,1005.12
2022-08-04T13:42:44.297Z,1005.14
2022-08-04T13:44:16.042Z,1005.09
2022-08-04T13:45:38.405Z,1005.14
2022-08-04T13:46:38.406Z,1005.12
2022-08-04T13:48:33.035Z,1005.15
2022-08-04T13:49:42.702Z,1005.14
2022-08-04T13:51:57.749Z,1005.09
2022-08-04T13:52:26.670Z,1005.12
2022-08-04T13:54:20.971Z,1005.12
2022-08-04T13:55:20.968Z,1005.12
2022-08-04T13:57:15.119Z,1005.07
2022-08-04T13:58:15.107Z,1005.09
2022-08-04T14:00:09.176Z,1005.04
2022-08-04T14:01:09.244Z,1005.07
2022-08-04T14:03:03.464Z,1005.04
2022-08-04T14:04:03.295Z,1005.02
2022-08-04T14:05:59.551Z,1005.01
2022-08-04T14:06:57.591Z,1005.00
2022-08-04T14:08:51.746Z,1005.01
2022-08-04T14:10:03.163Z,1004.96
2022-08-04T14:12:09.202Z,1004.97
2022-08-04T14:12:47.128Z,1004.96
2022-08-04T14:14:40.060Z,1004.96
2022-08-04T14:16:01.021Z,1004.89
2022-08-04T14:17:34.293Z,1004.91
2022-08-04T14:18:34.146Z,1004.94
2022-08-04T14:20:28.336Z,1004.93
2022-08-04T14:21:28.338Z,1004.93
2022-08-04T14:23:22.551Z,1004.84
2022-08-04T14:24:22.538Z,1004.88
2022-08-04T14:26:16.700Z,1004.84
2022-08-04T14:27:16.701Z,1004.77
2022-08-04T14:29:26.824Z,1004.85
2022-08-04T14:30:10.812Z,1004.85
2022-08-04T14:32:10.800Z,1004.87
2022-08-04T14:34:01.838Z,1004.84
2022-08-04T14:34:59.071Z,1004.88
2022-08-04T14:35:59.085Z,1004.80
2022-08-04T14:37:53.300Z,1004.87
2022-08-04T14:38:53.699Z,1004.85
2022-08-04T14:40:47.355Z,1004.83
2022-08-04T14:41:47.361Z,1004.82
2022-08-04T14:43:41.480Z,1004.78
2022-08-04T14:44:41.474Z,1004.82
2022-08-04T14:46:36.564Z,1004.82
2022-08-04T14:47:35.605Z,1004.82
2022-08-04T14:49:29.834Z,1004.79
2022-08-04T14:50:29.825Z,1004.80
2022-08-04T14:52:24.264Z,1004.79
2022-08-04T14:53:24.064Z,1004.77
2022-08-04T14:55:18.315Z,1004.79
2022-08-04T14:56:37.343Z,1004.80
2022-08-04T14:58:35.571Z,1004.79
2022-08-04T14:59:12.440Z,1004.82
2022-08-04T15:01:06.550Z,1004.83
2022-08-04T15:02:06.587Z,1004.88
2022-08-04T15:04:00.717Z,1004.83
2022-08-04T15:06:00.011Z,1004.84
2022-08-04T15:06:54.801Z,1004.81
2022-08-04T15:07:54.806Z,1004.80
2022-08-04T15:09:48.909Z,1004.76
2022-08-04T15:10:48.899Z,1004.79
2022-08-04T15:12:43.063Z,1004.73
2022-08-04T15:13:43.062Z,1004.76
2022-08-04T15:15:37.709Z,1004.74
2022-08-04T15:16:37.145Z,1004.74
2022-08-04T15:18:31.240Z,1004.73
2022-08-04T15:19:31.233Z,1004.74
2022-08-04T15:21:25.313Z,1004.70
2022-08-04T15:22:25.322Z,1004.70
2022-08-04T15:24:19.446Z,1004.67
2022-08-04T15:25:19.438Z,1004.65
2022-08-04T15:27:13.537Z,1004.65
2022-08-04T15:28:13.543Z,1004.62
2022-08-04T15:30:07.629Z,1004.67
2022-08-04T15:32:01.699Z,1004.65
2022-08-04T15:33:01.779Z,1004.66
2022-08-04T15:34:01.775Z,1004.65
2022-08-04T15:35:55.865Z,1004.65
2022-08-04T15:36:56.413Z,1004.59
2022-08-04T15:38:49.992Z,1004.54
2022-08-04T15:39:49.988Z,1004.57
2022-08-04T15:41:46.307Z,1004.55
2022-08-04T15:42:44.091Z,1004.54
2022-08-04T15:44:38.193Z,1004.54
2022-08-04T15:46:37.201Z,1004.57
2022-08-04T15:47:32.307Z,1004.53
2022-08-04T15:48:32.310Z,1004.51
2022-08-04T15:50:28.611Z,1004.50
2022-08-04T15:51:32.118Z,1004.53
2022-08-04T15:53:23.110Z,1004.56
2022-08-04T15:54:27.457Z,1004.58
2022-08-04T15:56:16.656Z,1004.60
2022-08-04T15:57:16.656Z,1004.56
2022-08-04T15:59:10.792Z,1004.57
2022-08-04T16:00:14.935Z,1004.55
2022-08-04T16:02:11.424Z,1004.53
2022-08-04T16:03:04.901Z,1004.58
2022-08-04T16:04:59.435Z,1004.55
2022-08-04T16:05:59.427Z,1004.56
2022-08-04T16:07:53.599Z,1004.59
2022-08-04T16:08:57.634Z,1004.57
2022-08-04T16:10:48.706Z,1004.64
2022-08-04T16:11:48.701Z,1004.69
2022-08-04T16:13:42.799Z,1004.71
2022-08-04T16:14:42.795Z,1004.76
2022-08-04T16:16:36.932Z,1004.76
2022-08-04T16:17:36.924Z,1004.79
2022-08-04T16:19:35.444Z,1004.89
2022-08-04T16:20:31.066Z,1004.92
2022-08-04T16:22:24.809Z,1005.09
2022-08-04T16:23:51.379Z,1005.15
2022-08-04T16:25:18.985Z,1005.35
2022-08-04T16:26:30.371Z,1005.39
2022-08-04T16:28:13.079Z,1005.54
2022-08-04T16:29:13.078Z,1005.66
2022-08-04T16:31:06.819Z,1005.87
2022-08-04T16:32:06.825Z,1005.78
2022-08-04T16:34:37.518Z,1005.82
2022-08-04T16:35:01.017Z,1005.64
2022-08-04T16:36:55.115Z,1005.60
2022-08-04T16:37:55.112Z,1005.54
2022-08-04T16:39:50.409Z,1005.52
2022-08-04T16:40:48.875Z,1005.55
2022-08-04T16:42:43.965Z,1005.46
2022-08-04T16:43:43.964Z,1005.43
2022-08-04T16:45:38.196Z,1005.31
2022-08-04T16:46:38.184Z,1005.27
2022-08-04T16:48:33.307Z,1005.15
2022-08-04T16:49:33.293Z,1005.12
2022-08-04T16:51:28.364Z,1005.12
2022-08-04T16:52:28.561Z,1005.08
2022-08-04T16:54:22.521Z,1005.14
2022-08-04T16:55:22.512Z,1005.16
2022-08-04T16:57:16.566Z,1005.10
2022-08-04T16:58:16.565Z,1005.08
2022-08-04T17:00:10.651Z,1005.14
2022-08-04T17:01:10.714Z,1005.14
2022-08-04T17:03:04.753Z,1005.14
2022-08-04T17:04:04.857Z,1005.20
2022-08-04T17:05:59.823Z,1005.13
2022-08-04T17:06:59.819Z,1005.16
2022-08-04T17:08:53.930Z,1005.11
2022-08-04T17:09:53.919Z,1005.11
2022-08-04T17:11:48.247Z,1005.12
2022-08-04T17:12:47.991Z,1005.08
2022-08-04T17:14:42.210Z,1005.04
2022-08-04T17:15:42.202Z,1004.95
2022-08-04T17:18:05.615Z,1004.99
2022-08-04T17:18:36.341Z,1005.01
2022-08-04T17:21:01.206Z,1005.00
2022-08-04T17:21:30.423Z,1004.99
2022-08-04T17:24:16.544Z,1004.96
2022-08-04T17:24:24.517Z,1004.98
2022-08-04T17:26:18.600Z,1005.00
2022-08-04T17:28:10.502Z,1004.96
2022-08-04T17:29:12.705Z,1004.90
2022-08-04T17:30:12.696Z,1004.90
2022-08-04T17:32:06.802Z,1004.88
2022-08-04T17:33:06.797Z,1004.87